Time,TemperatureF,DewpointF,PressureIn,WindDirection,WindDirectionDegrees,WindSpeedMPH,WindSpeedGustMPH,Humidity,HourlyPrecipIn,Conditions,Clouds,dailyrainin,SoftwareType,DateUTC
2013-02-10 15:10:00,50.7,18.0,30.48,ESE,112,1.0,5.0,27,0.00,,CLR,0.00,VWS V14.01,2013-02-10 20:10:00,
2013-02-10 15:28:00,50.8,18.0,30.47,SE,134,1.0,2.0,27,0.00,,CLR,0.00,VWS V14.01,2013-02-10 20:28:00,
2013-02-10 15:34:00,50.8,17.2,30.47,ESE,112,3.0,5.0,26,0.00,,CLR,0.00,VWS V14.01,2013-02-10 20:34:00,
2013-02-10 15:40:00,51.1,18.3,30.47,SE,129,0.0,3.0,27,0.00,,CLR,0.00,VWS V14.01,2013-02-10 20:40:00,
2013-02-10 15:46:00,51.1,18.3,30.47,SE,136,2.0,6.0,27,0.00,,CLR,0.00,VWS V14.01,2013-02-10 20:46:00,
2013-02-10 15:52:00,51.0,19.1,30.46,SW,216,1.0,6.0,28,0.00,,CLR,0.00,VWS V14.01,2013-02-10 20:52:00,
2013-02-10 15:59:00,51.0,18.2,30.46,SE,133,0.0,4.0,27,0.00,,CLR,0.00,VWS V14.01,2013-02-10 20:59:00,
2013-02-10 16:04:00,50.7,18.8,30.46,ESE,113,5.0,5.0,28,0.00,,BKN250,0.00,VWS V14.01,2013-02-10 21:04:00,
2013-02-10 16:09:00,50.4,18.5,30.46,ESE,115,2.0,5.0,28,0.00,,BKN250,0.00,VWS V14.01,2013-02-10 21:09:00,
2013-02-10 16:15:00,50.4,18.5,30.46,ESE,115,0.0,1.0,28,0.00,,BKN250,0.00,VWS V14.01,2013-02-10 21:15:00,
2013-02-10 16:21:00,50.5,18.6,30.46,South,178,0.0,3.0,28,0.00,,BKN250,0.00,VWS V14.01,2013-02-10 21:21:00,
2013-02-10 16:27:00,50.7,18.8,30.46,ESE,105,0.0,2.0,28,0.00,,BKN250,0.00,VWS V14.01,2013-02-10 21:27:00,
2013-02-10 16:33:00,50.7,18.8,30.47,ESE,105,1.0,2.0,28,0.00,,BKN250,0.00,VWS V14.01,2013-02-10 21:33:00,
2013-02-10 16:39:00,50.7,19.6,30.47,ESE,109,2.0,3.0,29,0.00,,BKN250,0.00,VWS V14.01,2013-02-10 21:39:00,
2013-02-10 16:46:00,50.7,19.6,30.47,ESE,109,2.0,3.0,29,0.00,,BKN250,0.00,VWS V14.01,2013-02-10 21:46:00,
2013-02-10 16:52:00,50.5,19.5,30.46,ESE,109,0.0,3.0,29,0.00,,BKN250,0.00,VWS V14.01,2013-02-10 21:52:00,
2013-02-10 16:58:00,50.5,20.2,30.46,ESE,110,0.0,1.0,30,0.00,,BKN250,0.00,VWS V14.01,2013-02-10 21:58:00,
2013-02-10 17:04:00,50.2,20.0,30.45,ESE,116,3.0,3.0,30,0.00,,BKN250,0.00,VWS V14.01,2013-02-10 22:04:00,
2013-02-10 17:10:00,50.1,19.9,30.45,ESE,108,0.0,3.0,30,0.00,,BKN250,0.00,VWS V14.01,2013-02-10 22:10:00,
2013-02-10 17:16:00,49.6,20.2,30.45,ESE,108,0.0,0.0,31,0.00,,BKN250,0.00,VWS V14.01,2013-02-10 22:16:00,
2013-02-10 17:22:00,49.4,21.5,30.45,SE,146,0.0,3.0,33,0.00,,BKN250,0.00,VWS V14.01,2013-02-10 22:22:00,
2013-02-10 17:28:00,49.1,21.3,30.45,SE,146,0.0,0.0,33,0.00,,BKN250,0.00,VWS V14.01,2013-02-10 22:28:00,
2013-02-10 17:34:00,48.6,22.2,30.45,SE,146,0.0,0.0,35,0.00,,BKN250,0.00,VWS V14.01,2013-02-10 22:34:00,
2013-02-10 17:40:00,48.2,21.9,30.45,SE,146,0.0,0.0,35,0.00,,BKN250,0.00,VWS V14.01,2013-02-10 22:40:00,
2013-02-10 17:46:00,47.7,22.1,30.45,SE,146,0.0,0.0,36,0.00,,BKN250,0.00,VWS V14.01,2013-02-10 22:46:00,
2013-02-10 17:52:00,47.1,23.4,30.45,SE,146,0.0,0.0,39,0.00,,BKN250,0.00,VWS V14.01,2013-02-10 22:52:00,
2013-02-10 17:58:00,46.7,24.3,30.45,SE,146,0.0,0.0,41,0.00,,BKN250,0.00,VWS V14.01,2013-02-10 22:58:00,
2013-02-10 18:04:00,46.0,23.0,30.45,SE,146,0.0,0.0,40,0.00,,OVC250,0.00,VWS V14.01,2013-02-10 23:04:00,
2013-02-10 18:10:00,45.5,24.9,30.45,SE,146,0.0,0.0,44,0.00,,OVC250,0.00,VWS V14.01,2013-02-10 23:10:00,
2013-02-10 18:16:00,45.1,24.0,30.45,SE,146,0.0,0.0,43,0.00,,OVC250,0.00,VWS V14.01,2013-02-10 23:16:00,
2013-02-10 18:22:00,45.1,22.8,30.44,SE,146,0.0,1.0,41,0.00,,OVC250,0.00,VWS V14.01,2013-02-10 23:22:00,
2013-02-10 18:28:00,45.4,22.5,30.44,SE,146,0.0,2.0,40,0.00,,OVC250,0.00,VWS V14.01,2013-02-10 23:28:00,
2013-02-10 18:34:00,45.7,22.2,30.44,SE,146,0.0,2.0,39,0.00,,OVC250,0.00,VWS V14.01,2013-02-10 23:34:00,
2013-02-10 18:40:00,45.8,21.6,30.44,SE,146,0.0,1.0,38,0.00,,OVC250,0.00,VWS V14.01,2013-02-10 23:40:00,
2013-02-10 18:46:00,45.8,21.6,30.44,ESE,117,0.0,2.0,38,0.00,,OVC250,0.00,VWS V14.01,2013-02-10 23:46:00,
2013-02-10 18:52:00,45.8,22.3,30.43,ESE,117,0.0,2.0,39,0.00,,OVC250,0.00,VWS V14.01,2013-02-10 23:52:00,
2013-02-10 18:58:00,45.8,22.9,30.43,ESE,117,0.0,1.0,40,0.00,,OVC250,0.00,VWS V14.01,2013-02-10 23:58:00,
2013-02-10 19:04:00,45.7,22.2,30.44,ESE,117,0.0,1.0,39,0.00,,OVC200,0.00,VWS V14.01,2013-02-11 00:04:00,
2013-02-10 19:09:00,45.7,22.8,30.44,ESE,117,0.0,0.0,40,0.00,,OVC200,0.00,VWS V14.01,2013-02-11 00:09:00,
2013-02-10 19:15:00,45.5,23.2,30.44,ESE,117,0.0,0.0,41,0.00,,OVC200,0.00,VWS V14.01,2013-02-11 00:15:00,
2013-02-10 19:21:00,45.4,23.7,30.44,ESE,117,0.0,1.0,42,0.00,,OVC200,0.00,VWS V14.01,2013-02-11 00:21:00,
2013-02-10 19:27:00,45.2,22.9,30.44,ESE,117,0.0,0.0,41,0.00,,OVC200,0.00,VWS V14.01,2013-02-11 00:27:00,
2013-02-10 19:33:00,45.1,24.0,30.44,ESE,117,0.0,1.0,43,0.00,,OVC200,0.00,VWS V14.01,2013-02-11 00:33:00,
2013-02-10 19:39:00,45.1,23.4,30.44,ESE,117,0.0,1.0,42,0.00,,OVC200,0.00,VWS V14.01,2013-02-11 00:39:00,
2013-02-10 19:45:00,45.1,23.4,30.44,ESE,117,0.0,1.0,42,0.00,,OVC200,0.00,VWS V14.01,2013-02-11 00:45:00,
2013-02-10 19:51:00,45.2,23.5,30.44,ESE,117,1.0,1.0,42,0.00,,OVC200,0.00,VWS V14.01,2013-02-11 00:51:00,
2013-02-10 19:57:00,45.2,24.6,30.44,ESE,117,0.0,0.0,44,0.00,,OVC200,0.00,VWS V14.01,2013-02-11 00:57:00,
2013-02-10 20:03:00,45.1,24.0,30.45,ESE,117,0.0,1.0,43,0.00,,OVC040,0.00,VWS V14.01,2013-02-11 01:03:00,
2013-02-10 20:09:00,45.1,24.0,30.45,ESE,117,0.0,1.0,43,0.00,,OVC040,0.00,VWS V14.01,2013-02-11 01:09:00,
2013-02-10 20:15:00,45.2,24.0,30.45,ESE,117,0.0,0.0,43,0.00,,OVC040,0.00,VWS V14.01,2013-02-11 01:15:00,
2013-02-10 20:21:00,45.4,24.8,30.45,ESE,117,0.0,1.0,44,0.00,,OVC040,0.00,VWS V14.01,2013-02-11 01:21:00,
2013-02-10 20:27:00,45.5,24.3,30.45,ESE,117,1.0,1.0,43,0.00,,OVC040,0.00,VWS V14.01,2013-02-11 01:27:00,
2013-02-10 20:33:00,45.8,24.0,30.44,ESE,119,3.0,4.0,42,0.00,,OVC040,0.00,VWS V14.01,2013-02-11 01:33:00,
2013-02-10 20:39:00,46.0,24.2,30.44,ESE,122,0.0,4.0,42,0.00,,OVC040,0.00,VWS V14.01,2013-02-11 01:39:00,
2013-02-10 20:45:00,46.0,24.2,30.44,ESE,118,2.0,3.0,42,0.00,,OVC040,0.00,VWS V14.01,2013-02-11 01:45:00,
2013-02-10 20:51:00,46.0,24.8,30.44,SE,131,1.0,3.0,43,0.00,,OVC040,0.00,VWS V14.01,2013-02-11 01:51:00,
2013-02-10 20:57:00,46.0,24.8,30.44,SE,131,1.0,1.0,43,0.00,,OVC040,0.00,VWS V14.01,2013-02-11 01:57:00,
2013-02-10 21:03:00,46.1,24.9,30.44,SE,131,0.0,1.0,43,0.00,,OVC035,0.00,VWS V14.01,2013-02-11 02:03:00,
2013-02-10 21:09:00,46.1,24.9,30.44,SE,131,0.0,1.0,43,0.00,,OVC035,0.00,VWS V14.01,2013-02-11 02:09:00,
2013-02-10 21:15:00,46.2,25.0,30.44,SE,131,0.0,1.0,43,0.00,,OVC035,0.00,VWS V14.01,2013-02-11 02:15:00,
2013-02-10 21:21:00,46.4,25.1,30.44,SE,131,0.0,1.0,43,0.00,,OVC035,0.00,VWS V14.01,2013-02-11 02:21:00,
2013-02-10 21:27:00,46.5,25.2,30.44,SE,131,0.0,2.0,43,0.00,,OVC035,0.00,VWS V14.01,2013-02-11 02:27:00,
2013-02-10 21:33:00,46.7,25.4,30.43,SE,131,0.0,2.0,43,0.00,,OVC035,0.00,VWS V14.01,2013-02-11 02:33:00,
2013-02-10 21:39:00,46.8,25.5,30.43,ESE,120,1.0,2.0,43,0.00,,OVC035,0.00,VWS V14.01,2013-02-11 02:39:00,
2013-02-10 21:45:00,46.8,25.5,30.43,ESE,120,0.0,0.0,43,0.00,,OVC035,0.00,VWS V14.01,2013-02-11 02:45:00,
2013-02-10 21:51:00,47.0,25.7,30.43,ESE,120,0.0,1.0,43,0.00,,OVC035,0.00,VWS V14.01,2013-02-11 02:51:00,
2013-02-10 21:58:00,47.0,25.7,30.43,ESE,120,0.0,1.0,43,0.00,,OVC035,0.00,VWS V14.01,2013-02-11 02:58:00,
2013-02-10 22:04:00,47.0,26.2,30.42,ESE,120,0.0,2.0,44,0.00,,OVC035,0.00,VWS V14.01,2013-02-11 03:04:00,
2013-02-10 22:10:00,47.0,26.8,30.42,ESE,120,1.0,2.0,45,0.00,,OVC035,0.00,VWS V14.01,2013-02-11 03:10:00,
2013-02-10 22:16:00,47.1,27.9,30.42,ESE,120,0.0,1.0,47,0.00,,OVC035,0.00,VWS V14.01,2013-02-11 03:16:00,
2013-02-10 22:22:00,47.0,28.9,30.42,East,100,0.0,2.0,49,0.00,,OVC035,0.00,VWS V14.01,2013-02-11 03:22:00,
2013-02-10 22:28:00,47.1,29.4,30.42,ESE,113,2.0,3.0,50,0.00,,OVC035,0.00,VWS V14.01,2013-02-11 03:28:00,
2013-02-10 22:34:00,47.1,30.4,30.42,SE,127,2.0,3.0,52,0.00,,OVC035,0.00,VWS V14.01,2013-02-11 03:34:00,
2013-02-10 22:40:00,47.0,30.8,30.42,SE,129,2.0,3.0,53,0.00,,OVC035,0.00,VWS V14.01,2013-02-11 03:40:00,
2013-02-10 22:46:00,47.0,31.2,30.42,ESE,119,0.0,2.0,54,0.00,,OVC035,0.00,VWS V14.01,2013-02-11 03:46:00,
2013-02-10 22:52:00,46.8,31.5,30.41,SE,131,0.0,3.0,55,0.00,,OVC035,0.00,VWS V14.01,2013-02-11 03:52:00,
2013-02-10 22:58:00,46.8,33.2,30.41,SSE,155,0.0,2.0,59,0.00,,OVC035,0.00,VWS V14.01,2013-02-11 03:58:00,
2013-02-10 23:04:00,46.4,35.3,30.39,SSE,148,1.0,2.0,65,0.00,,-RA,0.00,VWS V14.01,2013-02-11 04:04:00,
2013-02-10 23:10:00,46.0,36.4,30.39,ESE,115,0.0,2.0,69,0.00,,-RA,0.00,VWS V14.01,2013-02-11 04:10:00,
2013-02-10 23:16:00,45.2,37.4,30.39,SE,129,0.0,3.0,74,0.01,,-RA,0.01,VWS V14.01,2013-02-11 04:16:00,
2013-02-10 23:22:00,44.5,38.1,30.37,SE,126,0.0,3.0,78,0.01,,-RA,0.01,VWS V14.01,2013-02-11 04:22:00,
2013-02-10 23:28:00,44.1,38.3,30.37,ESE,117,4.0,4.0,80,0.01,,-RA,0.01,VWS V14.01,2013-02-11 04:28:00,
2013-02-10 23:34:00,43.8,38.7,30.35,SE,128,2.0,4.0,82,0.01,,-RA,0.01,VWS V14.01,2013-02-11 04:34:00,
2013-02-10 23:40:00,43.5,38.7,30.35,ESE,115,0.0,4.0,83,0.01,,-RA,0.01,VWS V14.01,2013-02-11 04:40:00,
2013-02-10 23:46:00,43.5,39.3,30.35,ESE,116,2.0,3.0,85,0.02,,-RA,0.02,VWS V14.01,2013-02-11 04:46:00,
2013-02-10 23:52:00,43.3,39.1,30.34,ESE,111,3.0,4.0,85,0.02,,-RA,0.02,VWS V14.01,2013-02-11 04:52:00,
2013-02-10 23:58:00,43.3,39.1,30.34,ESE,116,3.0,4.0,85,0.02,,-RA,0.02,VWS V14.01,2013-02-11 04:58:00,